createdAt,value
2023-01-23T00:00:36.587Z,1.10
2023-01-23T00:02:09.633Z,1.06
2023-01-23T00:03:41.694Z,1.06
2023-01-23T00:05:13.839Z,1.08
2023-01-23T00:06:46.781Z,1.09
2023-01-23T00:08:21.699Z,1.10
2023-01-23T00:09:53.723Z,1.10
2023-01-23T00:11:27.077Z,1.16
2023-01-23T00:12:59.185Z,1.12
2023-01-23T00:14:31.105Z,1.13
2023-01-23T00:16:10.147Z,1.11
2023-01-23T00:17:42.421Z,1.10
2023-01-23T00:19:14.342Z,1.10
2023-01-23T00:20:46.265Z,1.12
2023-01-23T00:22:18.189Z,1.13
2023-01-23T00:23:51.366Z,1.14
2023-01-23T00:25:23.265Z,1.12
2023-01-23T00:26:55.534Z,1.14
2023-01-23T00:28:27.507Z,1.14
2023-01-23T00:29:59.461Z,1.17
2023-01-23T00:31:32.755Z,1.19
2023-01-23T00:33:04.921Z,1.17
2023-01-23T00:34:37.852Z,1.14
2023-01-23T00:36:10.281Z,1.18
2023-01-23T00:37:42.832Z,1.18
2023-01-23T00:39:20.385Z,1.15
2023-01-23T00:40:52.355Z,1.16
2023-01-23T00:42:24.432Z,1.14
2023-01-23T00:43:56.321Z,1.17
2023-01-23T00:45:28.450Z,1.13
2023-01-23T00:47:00.778Z,1.15
2023-01-23T00:48:33.016Z,1.15
2023-01-23T00:50:05.133Z,1.12
2023-01-23T00:51:37.166Z,1.10
2023-01-23T00:53:09.103Z,1.08
2023-01-23T00:54:41.187Z,1.08
2023-01-23T00:56:13.165Z,1.04
2023-01-23T00:57:45.159Z,1.00
2023-01-23T00:59:17.076Z,0.97
2023-01-23T01:00:49.055Z,0.98
2023-01-23T01:02:22.647Z,0.97
2023-01-23T01:03:54.679Z,0.93
2023-01-23T01:05:27.439Z,0.92
2023-01-23T01:06:59.413Z,0.91
2023-01-23T01:08:31.738Z,0.91
2023-01-23T01:10:04.309Z,0.88
2023-01-23T01:11:36.286Z,0.89
2023-01-23T01:13:08.923Z,0.89
2023-01-23T01:14:41.006Z,0.89
2023-01-23T01:16:13.319Z,0.93
2023-01-23T01:17:45.261Z,0.91
2023-01-23T01:19:18.215Z,0.96
2023-01-23T01:20:50.749Z,0.97
2023-01-23T01:22:22.828Z,0.97
2023-01-23T01:23:54.853Z,0.97
2023-01-23T01:25:26.876Z,1.04
2023-01-23T01:26:59.529Z,1.05
2023-01-23T01:28:33.184Z,1.05
2023-01-23T01:30:05.508Z,1.10
2023-01-23T01:31:37.599Z,1.11
2023-01-23T01:33:11.132Z,1.12
2023-01-23T01:34:43.059Z,1.15
2023-01-23T01:36:16.711Z,1.15
2023-01-23T01:37:51.602Z,1.15
2023-01-23T01:39:23.565Z,1.15
2023-01-23T01:40:57.323Z,1.16
2023-01-23T01:42:29.717Z,1.16
2023-01-23T01:44:01.684Z,1.17
2023-01-23T01:45:52.319Z,1.15
2023-01-23T01:47:24.544Z,1.16
2023-01-23T01:49:01.985Z,1.19
2023-01-23T01:50:35.563Z,1.18
2023-01-23T01:52:09.530Z,1.20
2023-01-23T01:53:42.019Z,1.20
2023-01-23T01:55:14.771Z,1.21
2023-01-23T01:56:55.721Z,1.21
2023-01-23T01:58:28.666Z,1.21
2023-01-23T02:00:00.676Z,1.23
2023-01-23T02:01:32.948Z,1.25
2023-01-23T02:03:07.648Z,1.26
2023-01-23T02:04:42.598Z,1.26
2023-01-23T02:06:14.692Z,1.27
2023-01-23T02:07:55.599Z,1.27
2023-01-23T02:09:27.721Z,1.26
2023-01-23T02:11:03.692Z,1.29
2023-01-23T02:12:38.717Z,1.29
2023-01-23T02:14:11.150Z,1.30
2023-01-23T02:15:43.188Z,1.28
2023-01-23T02:17:15.119Z,1.29
2023-01-23T02:18:49.315Z,1.28
2023-01-23T02:20:21.678Z,1.25
2023-01-23T02:21:57.194Z,1.24
2023-01-23T02:23:44.309Z,1.26
2023-01-23T02:25:21.949Z,1.24
2023-01-23T02:26:54.298Z,1.24
2023-01-23T02:28:36.416Z,1.22
2023-01-23T02:30:08.751Z,1.21
2023-01-23T02:31:42.984Z,1.22
2023-01-23T02:33:21.107Z,1.22
2023-01-23T02:34:56.479Z,1.21
2023-01-23T02:36:31.624Z,1.23
2023-01-23T02:38:06.504Z,1.19
2023-01-23T02:39:39.665Z,1.20
2023-01-23T02:41:14.508Z,1.20
2023-01-23T02:42:47.570Z,1.18
2023-01-23T02:44:28.787Z,1.17
2023-01-23T02:46:04.896Z,1.18
2023-01-23T02:47:36.979Z,1.16
2023-01-23T02:49:09.171Z,1.16
2023-01-23T02:50:43.432Z,1.15
2023-01-23T02:52:15.413Z,1.16
2023-01-23T02:53:47.481Z,1.13
2023-01-23T02:55:19.474Z,1.11
2023-01-23T02:56:51.505Z,1.06
2023-01-23T02:58:44.723Z,1.05
2023-01-23T03:00:17.020Z,1.04
2023-01-23T03:01:49.408Z,0.99
2023-01-23T03:03:21.563Z,1.00
2023-01-23T03:04:53.685Z,0.98
2023-01-23T03:06:25.731Z,0.97
2023-01-23T03:07:58.282Z,0.96
2023-01-23T03:09:30.270Z,0.92
2023-01-23T03:11:03.082Z,0.90
2023-01-23T03:12:35.246Z,0.88
2023-01-23T03:14:09.015Z,0.87
2023-01-23T03:15:42.456Z,0.85
2023-01-23T03:17:16.069Z,0.83
2023-01-23T03:18:54.688Z,0.83
2023-01-23T03:20:28.743Z,0.82
2023-01-23T03:22:02.141Z,0.79
2023-01-23T03:23:34.564Z,0.76
2023-01-23T03:25:07.067Z,0.75
2023-01-23T03:26:40.029Z,0.74
2023-01-23T03:28:32.911Z,0.72
2023-01-23T03:30:13.886Z,0.72
2023-01-23T03:31:45.975Z,0.73
2023-01-23T03:33:19.023Z,0.73
2023-01-23T03:34:51.129Z,0.72
2023-01-23T03:36:23.634Z,0.72
2023-01-23T03:37:55.669Z,0.71
2023-01-23T03:39:46.547Z,0.68
2023-01-23T03:41:25.225Z,0.71
2023-01-23T03:42:58.797Z,0.67
2023-01-23T03:44:32.990Z,0.68
2023-01-23T03:46:05.069Z,0.71
2023-01-23T03:47:37.302Z,0.65
2023-01-23T03:49:10.807Z,0.65
2023-01-23T03:50:42.849Z,0.61
2023-01-23T03:52:15.447Z,0.64
2023-01-23T03:53:48.061Z,0.59
2023-01-23T03:55:20.856Z,0.57
2023-01-23T03:56:52.856Z,0.54
2023-01-23T03:58:45.052Z,0.52
2023-01-23T04:00:18.903Z,0.50
2023-01-23T04:02:00.716Z,0.51
2023-01-23T04:03:32.915Z,0.47
2023-01-23T04:05:05.129Z,0.47
2023-01-23T04:06:37.173Z,0.46
2023-01-23T04:08:09.092Z,0.45
2023-01-23T04:09:41.645Z,0.45
2023-01-23T04:11:14.142Z,0.49
2023-01-23T04:12:46.785Z,0.46
2023-01-23T04:14:18.839Z,0.43
2023-01-23T04:15:50.913Z,0.43
2023-01-23T04:17:22.897Z,0.42
2023-01-23T04:18:54.929Z,0.45
2023-01-23T04:20:27.550Z,0.45
2023-01-23T04:22:01.117Z,0.43
2023-01-23T04:23:37.109Z,0.43
2023-01-23T04:25:10.175Z,0.44
2023-01-23T04:26:42.145Z,0.46
2023-01-23T04:28:14.441Z,0.45
2023-01-23T04:29:48.025Z,0.47
2023-01-23T04:31:20.171Z,0.49
2023-01-23T04:32:52.265Z,0.50
2023-01-23T04:34:25.608Z,0.51
2023-01-23T04:36:01.099Z,0.50
2023-01-23T04:37:34.663Z,0.50
2023-01-23T04:39:07.528Z,0.48
2023-01-23T04:40:41.004Z,0.48
2023-01-23T04:42:13.094Z,0.47
2023-01-23T04:44:21.218Z,0.47
2023-01-23T04:46:11.630Z,0.44
2023-01-23T04:48:04.814Z,0.48
2023-01-23T04:49:39.626Z,0.48
2023-01-23T04:51:11.914Z,0.46
2023-01-23T04:52:43.938Z,0.44
2023-01-23T04:54:16.360Z,0.42
2023-01-23T04:55:49.407Z,0.43
2023-01-23T04:57:22.128Z,0.40
2023-01-23T04:58:58.616Z,0.40
2023-01-23T05:00:30.798Z,0.37
2023-01-23T05:02:04.695Z,0.36
2023-01-23T05:03:43.009Z,0.36
2023-01-23T05:05:17.331Z,0.37
2023-01-23T05:06:49.278Z,0.35
2023-01-23T05:08:21.466Z,0.36
2023-01-23T05:10:01.900Z,0.33
2023-01-23T05:11:34.568Z,0.31
2023-01-23T05:13:06.863Z,0.33
2023-01-23T05:14:38.931Z,0.33
2023-01-23T05:16:11.217Z,0.33
2023-01-23T05:18:03.588Z,0.34
2023-01-23T05:19:35.637Z,0.32
2023-01-23T05:21:09.936Z,0.33
2023-01-23T05:22:52.626Z,0.34
2023-01-23T05:24:27.782Z,0.32
2023-01-23T05:26:01.603Z,0.34
2023-01-23T05:27:35.297Z,0.33
2023-01-23T05:29:07.820Z,0.33
2023-01-23T05:30:43.947Z,0.32
2023-01-23T05:32:45.563Z,0.36
2023-01-23T05:34:23.313Z,0.37
2023-01-23T05:35:58.766Z,0.37
2023-01-23T05:37:30.991Z,0.38
2023-01-23T05:39:07.957Z,0.39
2023-01-23T05:40:40.162Z,0.38
2023-01-23T05:42:20.947Z,0.39
2023-01-23T05:44:16.066Z,0.40
2023-01-23T05:45:59.176Z,0.44
2023-01-23T05:47:48.850Z,0.43
2023-01-23T05:49:22.677Z,0.43
2023-01-23T05:50:56.360Z,0.46
2023-01-23T05:52:28.434Z,0.46
2023-01-23T05:54:01.096Z,0.49
2023-01-23T05:55:33.312Z,0.46
2023-01-23T05:57:05.369Z,0.47
2023-01-23T05:58:56.195Z,0.46
2023-01-23T06:00:36.716Z,0.47
2023-01-23T06:02:29.003Z,0.48
2023-01-23T06:04:23.823Z,0.46
2023-01-23T06:06:05.844Z,0.49
2023-01-23T06:07:38.016Z,0.49
2023-01-23T06:09:13.419Z,0.47
2023-01-23T06:10:45.468Z,0.50
2023-01-23T06:12:18.002Z,0.52
2023-01-23T06:13:49.912Z,0.48
2023-01-23T06:15:22.466Z,0.49
2023-01-23T06:16:56.878Z,0.49
2023-01-23T06:18:28.926Z,0.53
2023-01-23T06:20:00.943Z,0.49
2023-01-23T06:21:33.109Z,0.50
2023-01-23T06:23:05.759Z,0.50
2023-01-23T06:24:37.965Z,0.51
2023-01-23T06:26:10.090Z,0.50
2023-01-23T06:27:42.165Z,0.53
2023-01-23T06:29:14.614Z,0.50
2023-01-23T06:30:46.900Z,0.51
2023-01-23T06:32:29.035Z,0.52
2023-01-23T06:34:01.213Z,0.51
2023-01-23T06:35:36.894Z,0.48
2023-01-23T06:37:11.105Z,0.48
2023-01-23T06:38:45.113Z,0.51
2023-01-23T06:40:18.718Z,0.50
2023-01-23T06:42:10.439Z,0.54
2023-01-23T06:43:47.953Z,0.54
2023-01-23T06:45:25.511Z,0.54
2023-01-23T06:46:57.446Z,0.54
2023-01-23T06:48:30.305Z,0.60
2023-01-23T06:50:04.618Z,0.63
2023-01-23T06:51:41.520Z,0.64
2023-01-23T06:53:16.497Z,0.68
2023-01-23T06:54:49.995Z,0.74
2023-01-23T06:56:22.199Z,0.79
2023-01-23T06:57:54.734Z,0.77
2023-01-23T06:59:26.680Z,0.79
2023-01-23T07:00:58.908Z,0.80
2023-01-23T07:02:52.276Z,0.82
2023-01-23T07:04:24.320Z,0.86
2023-01-23T07:05:57.528Z,0.87
2023-01-23T07:07:29.550Z,0.87
2023-01-23T07:09:02.105Z,0.89
2023-01-23T07:10:34.567Z,0.91
2023-01-23T07:12:07.433Z,0.94
2023-01-23T07:13:39.622Z,0.96
2023-01-23T07:15:11.818Z,0.97
2023-01-23T07:16:45.854Z,0.99
2023-01-23T07:18:18.065Z,1.01
2023-01-23T07:19:50.309Z,1.02
2023-01-23T07:21:23.182Z,1.05
2023-01-23T07:22:55.625Z,1.09
2023-01-23T07:24:30.064Z,1.08
2023-01-23T07:26:03.644Z,1.10
2023-01-23T07:27:35.851Z,1.11
2023-01-23T07:29:08.985Z,1.11
2023-01-23T07:30:41.181Z,1.11
2023-01-23T07:32:13.161Z,1.13
2023-01-23T07:33:45.178Z,1.16
2023-01-23T07:35:17.244Z,1.13
2023-01-23T07:36:49.256Z,1.15
2023-01-23T07:38:23.633Z,1.15
2023-01-23T07:39:55.671Z,1.18
2023-01-23T07:41:27.738Z,1.16
2023-01-23T07:42:59.741Z,1.18
2023-01-23T07:44:31.694Z,1.19
2023-01-23T07:46:03.748Z,1.20
2023-01-23T07:47:36.330Z,1.22
2023-01-23T07:49:08.367Z,1.22
2023-01-23T07:50:40.518Z,1.22
2023-01-23T07:52:12.582Z,1.23
2023-01-23T07:53:44.541Z,1.22
2023-01-23T07:55:16.680Z,1.23
2023-01-23T07:56:49.350Z,1.20
2023-01-23T07:58:21.402Z,1.21
2023-01-23T07:59:53.428Z,1.20
2023-01-23T08:01:25.570Z,1.24
2023-01-23T08:02:57.849Z,1.25
2023-01-23T08:04:29.861Z,1.28
2023-01-23T08:06:01.869Z,1.27
2023-01-23T08:07:33.887Z,1.26
2023-01-23T08:09:05.802Z,1.25
2023-01-23T08:10:38.212Z,1.24
2023-01-23T08:12:11.514Z,1.26
2023-01-23T08:13:43.575Z,1.24
2023-01-23T08:15:15.583Z,1.24
2023-01-23T08:16:51.642Z,1.26
2023-01-23T08:18:23.759Z,1.29
2023-01-23T08:19:55.792Z,1.29
2023-01-23T08:21:27.730Z,1.35
2023-01-23T08:23:01.593Z,1.31
2023-01-23T08:24:33.535Z,1.34
2023-01-23T08:26:06.255Z,1.37
2023-01-23T08:27:38.218Z,1.39
2023-01-23T08:29:11.092Z,1.39
2023-01-23T08:30:43.089Z,1.41
2023-01-23T08:32:15.267Z,1.43
2023-01-23T08:33:47.253Z,1.48
2023-01-23T08:35:19.315Z,1.45
2023-01-23T08:36:51.549Z,1.46
2023-01-23T08:38:24.198Z,1.45
2023-01-23T08:39:56.172Z,1.47
2023-01-23T08:41:28.297Z,1.51
2023-01-23T08:43:00.285Z,1.58
2023-01-23T08:44:34.323Z,1.57
2023-01-23T08:46:06.391Z,1.63
2023-01-23T08:47:38.541Z,1.65
2023-01-23T08:49:11.449Z,1.68
2023-01-23T08:50:43.841Z,1.76
2023-01-23T08:52:15.847Z,1.80
2023-01-23T08:53:47.912Z,1.83
2023-01-23T08:55:19.881Z,1.85
2023-01-23T08:56:51.887Z,1.91
2023-01-23T08:58:24.913Z,1.90
2023-01-23T08:59:57.104Z,1.91
2023-01-23T09:01:29.083Z,1.94
2023-01-23T09:03:01.557Z,1.99
2023-01-23T09:04:34.002Z,2.00
2023-01-23T09:06:06.581Z,2.06
2023-01-23T09:07:38.752Z,2.06
2023-01-23T09:09:10.820Z,2.08
2023-01-23T09:10:42.934Z,2.08
2023-01-23T09:12:15.058Z,2.13
2023-01-23T09:13:47.414Z,2.20
2023-01-23T09:15:19.584Z,2.22
2023-01-23T09:16:51.552Z,2.22
2023-01-23T09:18:24.990Z,2.26
2023-01-23T09:20:00.568Z,2.31
2023-01-23T09:21:32.581Z,2.34
2023-01-23T09:23:04.515Z,2.35
2023-01-23T09:24:36.572Z,2.36
2023-01-23T09:26:12.464Z,2.43
2023-01-23T09:27:44.574Z,2.43
2023-01-23T09:29:16.680Z,2.43
2023-01-23T09:30:48.613Z,2.47
2023-01-23T09:32:20.709Z,2.45
2023-01-23T09:33:52.789Z,2.49
2023-01-23T09:35:24.728Z,2.53
2023-01-23T09:36:56.772Z,2.61
2023-01-23T09:38:28.858Z,2.64
2023-01-23T09:40:01.233Z,2.66
2023-01-23T09:41:33.209Z,2.73
2023-01-23T09:43:11.944Z,2.76
2023-01-23T09:45:03.644Z,2.84
2023-01-23T09:46:54.361Z,2.89
2023-01-23T09:48:26.259Z,2.89
2023-01-23T09:50:02.897Z,2.92
2023-01-23T09:51:44.350Z,2.94
2023-01-23T09:53:19.056Z,2.90
2023-01-23T09:55:02.336Z,2.94
2023-01-23T09:56:38.057Z,2.97
2023-01-23T09:58:15.654Z,3.01
2023-01-23T10:00:00.782Z,3.02
2023-01-23T10:01:34.758Z,3.06
2023-01-23T10:03:12.759Z,3.11
2023-01-23T10:04:44.703Z,3.09
2023-01-23T10:06:16.645Z,3.10
2023-01-23T10:07:48.587Z,3.14
2023-01-23T10:09:23.674Z,3.09
2023-01-23T10:11:00.270Z,3.06
2023-01-23T10:12:32.278Z,3.03
2023-01-23T10:14:09.608Z,3.04
2023-01-23T10:15:41.544Z,2.96
2023-01-23T10:17:27.769Z,2.93
2023-01-23T10:19:09.727Z,2.96
2023-01-23T10:20:50.005Z,2.94
2023-01-23T10:22:42.221Z,2.94
2023-01-23T10:24:16.178Z,2.96
2023-01-23T10:25:48.310Z,2.97
2023-01-23T10:27:34.723Z,2.94
2023-01-23T10:29:22.758Z,2.97
2023-01-23T10:30:58.414Z,2.98
2023-01-23T10:32:31.812Z,3.05
2023-01-23T10:34:09.893Z,3.06
2023-01-23T10:35:50.973Z,3.08
2023-01-23T10:37:23.012Z,3.15
2023-01-23T10:38:58.825Z,3.17
2023-01-23T10:40:49.304Z,3.20
2023-01-23T10:42:22.627Z,3.23
2023-01-23T10:43:55.180Z,3.29
2023-01-23T10:45:27.232Z,3.34
2023-01-23T10:47:02.149Z,3.42
2023-01-23T10:48:40.742Z,3.46
2023-01-23T10:50:12.999Z,3.49
2023-01-23T10:51:49.810Z,3.48
2023-01-23T10:53:22.198Z,3.56
2023-01-23T10:54:54.354Z,3.55
2023-01-23T10:56:26.481Z,3.55
2023-01-23T10:58:02.475Z,3.66
2023-01-23T10:59:35.741Z,3.70
2023-01-23T11:01:23.797Z,3.76
2023-01-23T11:02:56.075Z,3.74
2023-01-23T11:04:29.859Z,3.76
2023-01-23T11:06:03.813Z,3.73
2023-01-23T11:07:37.705Z,3.73
2023-01-23T11:09:18.940Z,3.68
2023-01-23T11:10:51.098Z,3.67
2023-01-23T11:12:23.048Z,3.67
2023-01-23T11:14:16.926Z,3.64
2023-01-23T11:15:49.016Z,3.55
2023-01-23T11:17:25.469Z,3.49
2023-01-23T11:19:04.738Z,3.48
2023-01-23T11:20:38.665Z,3.46
2023-01-23T11:22:30.918Z,3.43
2023-01-23T11:24:10.685Z,3.41
2023-01-23T11:25:44.228Z,3.38
2023-01-23T11:27:26.588Z,3.34
2023-01-23T11:28:58.631Z,3.35
2023-01-23T11:30:36.112Z,3.42
2023-01-23T11:32:12.673Z,3.46
2023-01-23T11:33:47.723Z,3.45
2023-01-23T11:35:39.897Z,3.46
2023-01-23T11:37:17.845Z,3.47
2023-01-23T11:38:53.280Z,3.49
2023-01-23T11:40:25.535Z,3.54
2023-01-23T11:41:57.492Z,3.55
2023-01-23T11:43:29.498Z,3.57
2023-01-23T11:45:01.764Z,3.63
2023-01-23T11:46:43.810Z,3.71
2023-01-23T11:48:34.171Z,3.75
2023-01-23T11:50:15.479Z,3.80
2023-01-23T11:52:06.159Z,3.80
2023-01-23T11:53:50.132Z,3.83
2023-01-23T11:55:25.625Z,3.82
2023-01-23T11:57:12.610Z,3.83
2023-01-23T11:58:50.718Z,3.82
2023-01-23T12:00:26.274Z,3.80
2023-01-23T12:02:08.311Z,3.82
2023-01-23T12:03:40.560Z,3.82
2023-01-23T12:05:12.569Z,3.82
2023-01-23T12:06:53.309Z,3.77
2023-01-23T12:08:48.162Z,3.79
2023-01-23T12:10:33.419Z,3.77
2023-01-23T12:12:11.574Z,3.84
2023-01-23T12:13:46.622Z,3.85
2023-01-23T12:15:30.822Z,3.78
2023-01-23T12:17:02.815Z,3.72
2023-01-23T12:18:35.631Z,3.74
2023-01-23T12:20:25.939Z,3.71
2023-01-23T12:22:03.706Z,3.76
2023-01-23T12:23:45.602Z,3.78
2023-01-23T12:25:34.025Z,3.78
2023-01-23T12:27:12.750Z,3.79
2023-01-23T12:28:56.606Z,3.75
2023-01-23T12:30:39.072Z,3.77
2023-01-23T12:32:29.915Z,3.78
2023-01-23T12:34:20.547Z,3.77
2023-01-23T12:35:58.593Z,3.77
2023-01-23T12:37:31.216Z,3.72
2023-01-23T12:39:03.248Z,3.74
2023-01-23T12:40:55.563Z,3.74
2023-01-23T12:42:50.561Z,3.71
2023-01-23T12:44:31.591Z,3.71
2023-01-23T12:46:06.159Z,3.71
2023-01-23T12:47:38.062Z,3.74
2023-01-23T12:49:18.517Z,3.74
2023-01-23T12:50:52.264Z,3.73
2023-01-23T12:52:44.650Z,3.70
2023-01-23T12:54:24.955Z,3.67
2023-01-23T12:56:03.094Z,3.67
2023-01-23T12:57:59.053Z,3.69
2023-01-23T12:59:41.758Z,3.68
2023-01-23T13:01:26.129Z,3.72
2023-01-23T13:02:58.521Z,3.73
2023-01-23T13:04:40.112Z,3.72
2023-01-23T13:06:18.567Z,3.72
2023-01-23T13:08:18.969Z,3.70
2023-01-23T13:09:57.445Z,3.73
2023-01-23T13:11:42.758Z,3.70
2023-01-23T13:13:16.234Z,3.67
2023-01-23T13:15:13.877Z,3.67
2023-01-23T13:16:46.107Z,3.63
2023-01-23T13:18:27.843Z,3.60
2023-01-23T13:20:37.480Z,3.60
2023-01-23T13:22:27.794Z,3.60
2023-01-23T13:24:39.431Z,3.58
2023-01-23T13:26:19.596Z,3.55
2023-01-23T13:27:57.903Z,3.57
2023-01-23T13:29:59.273Z,3.56
2023-01-23T13:31:42.424Z,3.58
2023-01-23T13:33:14.432Z,3.54
2023-01-23T13:34:46.511Z,3.53
2023-01-23T13:36:24.156Z,3.53
2023-01-23T13:37:58.511Z,3.51
2023-01-23T13:39:30.537Z,3.51
2023-01-23T13:41:05.597Z,3.52
2023-01-23T13:42:37.595Z,3.53
2023-01-23T13:44:19.084Z,3.54
2023-01-23T13:45:51.178Z,3.56
2023-01-23T14:21:18.416Z,3.07
2023-01-23T14:22:54.074Z,3.06
2023-01-23T14:24:41.040Z,3.06
2023-01-23T14:26:16.829Z,3.06
2023-01-23T14:27:53.655Z,3.05
2023-01-23T14:29:26.845Z,3.03
2023-01-23T14:31:00.462Z,3.02
2023-01-23T14:32:33.931Z,3.00
2023-01-23T14:34:10.617Z,2.97
2023-01-23T14:35:44.190Z,2.97
2023-01-23T14:37:16.323Z,2.93
2023-01-23T14:38:49.333Z,2.93
2023-01-23T14:40:27.595Z,2.91
2023-01-23T14:42:02.642Z,2.89
2023-01-23T14:43:35.959Z,2.87
2023-01-23T14:45:10.745Z,2.84
2023-01-23T14:46:43.732Z,2.85
2023-01-23T14:48:16.933Z,2.80
2023-01-23T14:49:49.024Z,2.79
2023-01-23T14:51:22.770Z,2.78
2023-01-23T14:52:58.725Z,2.75
2023-01-23T14:54:33.129Z,2.74
2023-01-23T14:56:06.565Z,2.72
2023-01-23T14:57:38.828Z,2.71
2023-01-23T14:59:21.894Z,2.68
2023-01-23T15:00:54.401Z,2.66
2023-01-23T15:02:31.226Z,2.65
2023-01-23T15:04:04.935Z,2.61
2023-01-23T15:05:39.768Z,2.61
2023-01-23T15:07:14.931Z,2.58
2023-01-23T15:08:47.359Z,2.56
2023-01-23T15:10:23.957Z,2.56
2023-01-23T15:11:56.695Z,2.50
2023-01-23T15:13:42.606Z,2.48
2023-01-23T15:15:17.685Z,2.46
2023-01-23T15:16:51.875Z,2.44
2023-01-23T15:18:28.416Z,2.42
2023-01-23T15:20:00.596Z,2.39
2023-01-23T15:21:34.421Z,2.35
2023-01-23T15:23:32.963Z,2.33
2023-01-23T15:25:34.710Z,2.28
2023-01-23T15:27:23.675Z,2.28
2023-01-23T15:29:02.496Z,2.26
2023-01-23T15:30:44.639Z,2.24
2023-01-23T15:32:26.415Z,2.19
2023-01-23T15:34:16.462Z,2.17
2023-01-23T15:35:48.728Z,2.15
2023-01-23T15:37:22.915Z,2.12
2023-01-23T15:38:55.714Z,2.10
2023-01-23T15:40:29.932Z,2.07
2023-01-23T15:42:14.175Z,2.06
2023-01-23T15:43:46.631Z,2.03
2023-01-23T15:45:18.839Z,2.02
2023-01-23T15:46:50.962Z,2.03
2023-01-23T15:48:23.008Z,2.03
2023-01-23T15:49:55.008Z,2.03
2023-01-23T15:51:27.041Z,2.06
2023-01-23T15:52:59.068Z,2.06
2023-01-23T15:54:36.142Z,2.07
2023-01-23T15:56:25.657Z,2.05
2023-01-23T15:57:57.647Z,2.06
2023-01-23T15:59:30.494Z,2.08
2023-01-23T16:01:02.699Z,2.09
2023-01-23T16:02:39.359Z,2.11
2023-01-23T16:04:17.531Z,2.09
2023-01-23T16:05:49.630Z,2.09
2023-01-23T16:07:23.949Z,2.11
2023-01-23T16:09:05.312Z,2.08
2023-01-23T16:10:38.360Z,2.08
2023-01-23T16:12:14.314Z,2.07
2023-01-23T16:13:46.324Z,2.08
2023-01-23T16:15:28.750Z,2.07
2023-01-23T16:17:11.667Z,2.06
2023-01-23T16:18:47.519Z,2.04
2023-01-23T16:20:20.922Z,2.03
2023-01-23T16:22:03.891Z,2.01
2023-01-23T16:23:47.135Z,1.97
2023-01-23T16:25:38.172Z,1.97
2023-01-23T16:27:16.785Z,1.94
2023-01-23T16:28:49.117Z,1.93
2023-01-23T16:30:22.432Z,1.91
2023-01-23T16:31:55.058Z,1.88
2023-01-23T16:33:27.094Z,1.88
2023-01-23T16:34:59.169Z,1.85
2023-01-23T16:36:31.148Z,1.83
2023-01-23T16:38:03.385Z,1.82
2023-01-23T16:39:35.401Z,1.80
2023-01-23T16:41:07.745Z,1.78
2023-01-23T16:42:40.081Z,1.78
2023-01-23T16:44:17.188Z,1.76
2023-01-23T16:45:49.158Z,1.73
2023-01-23T16:47:21.241Z,1.72
2023-01-23T16:48:55.033Z,1.70
2023-01-23T16:50:27.082Z,1.70
2023-01-23T16:52:00.306Z,1.70
2023-01-23T16:53:36.924Z,1.68
2023-01-23T16:55:26.543Z,1.68
2023-01-23T16:56:58.928Z,1.67
2023-01-23T16:58:49.847Z,1.66
2023-01-23T17:00:33.983Z,1.71
2023-01-23T17:02:20.333Z,1.73
2023-01-23T17:03:57.664Z,1.78
2023-01-23T17:05:29.670Z,1.80
2023-01-23T17:07:01.829Z,1.82
2023-01-23T17:08:33.806Z,1.87
2023-01-23T17:10:06.076Z,1.90
2023-01-23T17:11:40.144Z,1.94
2023-01-23T17:13:13.291Z,1.96
2023-01-23T17:14:46.147Z,1.97
2023-01-23T17:16:26.905Z,1.98
2023-01-23T17:18:00.749Z,1.99
2023-01-23T17:19:33.830Z,2.03
2023-01-23T17:21:06.422Z,2.03
2023-01-23T17:22:39.744Z,2.05
2023-01-23T17:24:15.627Z,2.03
2023-01-23T17:26:00.242Z,2.06
2023-01-23T17:27:44.310Z,2.06
2023-01-23T17:29:17.085Z,2.08
2023-01-23T17:30:51.378Z,2.08
2023-01-23T17:32:27.140Z,2.07
2023-01-23T17:33:59.300Z,2.04
2023-01-23T17:35:36.713Z,2.04
2023-01-23T17:37:17.734Z,2.01
2023-01-23T17:38:49.993Z,2.01
2023-01-23T17:40:22.174Z,1.99
2023-01-23T17:41:54.254Z,2.00
2023-01-23T17:43:26.394Z,1.99
2023-01-23T17:44:58.360Z,1.97
2023-01-23T17:46:32.336Z,1.95
2023-01-23T17:48:04.474Z,1.93
2023-01-23T17:49:36.471Z,1.93
2023-01-23T17:51:12.926Z,1.93
2023-01-23T17:52:45.311Z,1.92
2023-01-23T17:54:20.206Z,1.92
2023-01-23T17:55:52.982Z,1.90
2023-01-23T17:57:25.164Z,1.90
2023-01-23T17:58:57.173Z,1.89
2023-01-23T18:00:29.355Z,1.88
2023-01-23T18:02:01.404Z,1.88
2023-01-23T18:03:33.639Z,1.88
2023-01-23T18:05:06.096Z,1.90
2023-01-23T18:06:38.246Z,1.89
2023-01-23T18:08:10.732Z,1.90
2023-01-23T18:09:42.826Z,1.91
2023-01-23T18:11:17.061Z,1.92
2023-01-23T18:13:08.753Z,1.93
2023-01-23T18:14:46.462Z,1.93
2023-01-23T18:16:26.038Z,1.93
2023-01-23T18:18:03.711Z,1.94
2023-01-23T18:19:35.884Z,1.92
2023-01-23T18:21:15.183Z,1.93
2023-01-23T18:22:47.657Z,1.95
2023-01-23T18:24:24.409Z,1.95
2023-01-23T18:26:22.494Z,1.95
2023-01-23T18:27:55.456Z,1.94
2023-01-23T18:29:36.349Z,1.94
2023-01-23T18:31:12.066Z,1.93
2023-01-23T18:32:54.759Z,1.93
2023-01-23T18:34:37.321Z,1.93
2023-01-23T18:36:12.512Z,1.93
2023-01-23T18:37:50.558Z,1.92
2023-01-23T18:39:32.172Z,1.92
2023-01-23T18:41:21.519Z,1.91
2023-01-23T18:43:05.586Z,1.92
2023-01-23T18:44:40.514Z,1.91
2023-01-23T18:46:14.536Z,1.90
2023-01-23T18:47:46.728Z,1.88
2023-01-23T18:49:32.423Z,1.87
2023-01-23T18:51:04.960Z,1.88
2023-01-23T18:52:43.669Z,1.88
2023-01-23T18:54:21.901Z,1.88
2023-01-23T18:55:56.806Z,1.85
2023-01-23T18:57:31.696Z,1.84
2023-01-23T18:59:12.381Z,1.84
2023-01-23T19:00:48.839Z,1.82
2023-01-23T19:02:34.459Z,1.80
2023-01-23T19:04:10.952Z,1.75
2023-01-23T19:05:43.270Z,1.74
2023-01-23T19:07:18.493Z,1.72
2023-01-23T19:08:51.609Z,1.70
2023-01-23T19:10:24.987Z,1.68
2023-01-23T19:12:01.997Z,1.65
2023-01-23T19:13:36.831Z,1.64
2023-01-23T19:15:29.006Z,1.63
2023-01-23T19:17:13.274Z,1.62
2023-01-23T19:18:46.837Z,1.61
2023-01-23T19:20:23.380Z,1.60
2023-01-23T19:21:59.419Z,1.57
2023-01-23T19:23:46.533Z,1.55
2023-01-23T19:25:19.190Z,1.52
2023-01-23T19:26:51.649Z,1.50
2023-01-23T19:28:23.720Z,1.48
2023-01-23T19:29:55.918Z,1.44
2023-01-23T19:31:28.012Z,1.41
2023-01-23T19:33:00.065Z,1.38
2023-01-23T19:34:32.329Z,1.34
2023-01-23T19:36:07.790Z,1.32
2023-01-23T19:37:40.589Z,1.29
2023-01-23T19:39:12.664Z,1.24
2023-01-23T19:40:45.306Z,1.21
2023-01-23T19:42:17.380Z,1.19
2023-01-23T19:43:53.620Z,1.15
2023-01-23T19:45:25.861Z,1.12
2023-01-23T19:46:57.962Z,1.09
2023-01-23T19:48:29.915Z,1.10
2023-01-23T19:50:01.975Z,1.07
2023-01-23T19:51:35.074Z,1.05
2023-01-23T19:53:07.127Z,1.04
2023-01-23T19:54:39.358Z,1.01
2023-01-23T19:56:12.074Z,0.99
2023-01-23T19:57:44.252Z,0.98
2023-01-23T19:59:16.434Z,0.96
2023-01-23T20:00:48.447Z,0.96
2023-01-23T20:02:20.830Z,0.95
2023-01-23T20:03:53.061Z,0.93
2023-01-23T20:05:25.311Z,0.94
2023-01-23T20:06:57.382Z,0.94
2023-01-23T20:08:29.458Z,0.93
2023-01-23T20:10:01.456Z,0.94
2023-01-23T20:11:33.456Z,0.93
2023-01-23T20:13:05.597Z,0.93
2023-01-23T20:14:37.587Z,0.92
2023-01-23T20:16:13.092Z,0.94
2023-01-23T20:17:48.210Z,0.94
2023-01-23T20:19:20.311Z,0.93
2023-01-23T20:20:57.967Z,0.94
2023-01-23T20:22:30.440Z,0.93
2023-01-23T20:24:02.596Z,0.93
2023-01-23T20:25:34.753Z,0.92
2023-01-23T20:27:06.766Z,0.93
2023-01-23T20:28:39.196Z,0.93
2023-01-23T20:30:16.239Z,0.94
2023-01-23T20:31:48.411Z,0.93
2023-01-23T20:33:21.589Z,0.94
2023-01-23T20:34:56.646Z,0.96
2023-01-23T20:36:28.683Z,0.93
2023-01-23T20:38:00.716Z,0.92
2023-01-23T20:39:32.657Z,0.92
2023-01-23T20:41:06.425Z,0.91
2023-01-23T20:42:38.758Z,0.92
2023-01-23T20:44:10.842Z,0.89
2023-01-23T20:45:49.345Z,0.91
2023-01-23T20:47:21.500Z,0.89
2023-01-23T20:48:53.453Z,0.89
2023-01-23T20:50:25.521Z,0.88
2023-01-23T20:52:17.882Z,0.89
2023-01-23T20:53:50.542Z,0.89
2023-01-23T20:55:23.046Z,0.88
2023-01-23T20:56:57.296Z,0.90
2023-01-23T20:58:48.534Z,0.89
2023-01-23T21:00:20.646Z,0.90
2023-01-23T21:02:11.637Z,0.89
2023-01-23T21:03:44.045Z,0.89
2023-01-23T21:05:16.084Z,0.87
2023-01-23T21:06:48.233Z,0.87
2023-01-23T21:08:20.203Z,0.85
2023-01-23T21:09:52.242Z,0.83
2023-01-23T21:11:25.939Z,0.81
2023-01-23T21:12:57.975Z,0.81
2023-01-23T21:14:30.420Z,0.79
2023-01-23T21:16:04.957Z,0.77
2023-01-23T21:17:37.132Z,0.77
2023-01-23T21:19:09.249Z,0.77
2023-01-23T21:20:41.258Z,0.75
2023-01-23T21:22:13.338Z,0.74
2023-01-23T21:23:51.876Z,0.74
2023-01-23T21:25:24.060Z,0.71
2023-01-23T21:26:56.157Z,0.71
2023-01-23T21:28:29.063Z,0.69
2023-01-23T21:30:01.044Z,0.66
2023-01-23T21:31:35.160Z,0.65
2023-01-23T21:33:07.236Z,0.63
2023-01-23T21:34:39.261Z,0.61
2023-01-23T21:36:12.401Z,0.60
2023-01-23T21:38:02.992Z,0.60
2023-01-23T21:39:35.074Z,0.61
2023-01-23T21:41:07.156Z,0.58
2023-01-23T21:42:39.156Z,0.57
2023-01-23T21:44:11.720Z,0.58
2023-01-23T21:45:44.020Z,0.60
2023-01-23T21:47:16.042Z,0.59